Time;durP1;ratioP1;P1;durP2;ratioP2;P2;SDS_P1;SDS_P2;PMS_P1;PMS_P2;Temp;Humidity;BMP_temperature;BMP_pressure;BME280_temperature;BME280_humidity;BME280_pressure;Samples;Min_cycle;Max_cycle;Signal;HPM_P1;HPM_P2
2023/10/30 00:00:09;;;;;;;1.30;1.00;;;;;;;12.45;100.00;101752.38;2593757;22;20243;-66
2023/10/30 00:01:09;;;;;;;1.33;1.00;;;;;;;12.63;100.00;101785.50;2594818;22;20182;-66
2023/10/30 00:02:10;;;;;;;1.87;1.10;;;;;;;12.53;100.00;101765.00;2607683;22;20380;-66
2023/10/30 00:03:11;;;;;;;4.37;1.50;;;;;;;12.69;100.00;101789.38;2605940;22;20185;-65
2023/10/30 00:04:11;;;;;;;1.43;0.93;;;;;;;12.70;100.00;101788.22;2607579;22;20587;-66
2023/10/30 00:05:12;;;;;;;4.77;1.20;;;;;;;12.71;100.00;101787.00;2607726;22;20482;-66
2023/10/30 00:06:12;;;;;;;0.97;0.77;;;;;;;12.10;100.00;101685.38;2607181;22;20149;-66
2023/10/30 00:07:12;;;;;;;2.10;1.03;;;;;;;12.70;100.00;101777.84;2607737;22;20506;-66
2023/10/30 00:08:13;;;;;;;4.93;1.00;;;;;;;12.45;100.00;101746.06;2606931;22;20215;-66
2023/10/30 00:09:15;;;;;;;2.93;1.37;;;;;;;12.69;100.00;101776.28;2593434;22;20216;-66
2023/10/30 00:10:16;;;;;;;3.23;1.20;;;;;;;12.36;100.00;101720.75;2593986;22;20155;-66
2023/10/30 00:11:16;;;;;;;3.83;1.30;;;;;;;12.69;100.00;101776.28;2607639;22;20457;-66
2023/10/30 00:12:17;;;;;;;3.03;1.13;;;;;;;12.71;100.00;101784.22;2607451;22;20169;-66
2023/10/30 00:13:17;;;;;;;4.23;1.10;;;;;;;12.32;100.00;101718.03;2606737;22;20244;-66
2023/10/30 00:14:17;;;;;;;2.30;1.17;;;;;;;12.72;100.00;101775.44;2607489;22;20154;-66
2023/10/30 00:15:18;;;;;;;2.57;1.30;;;;;;;12.74;100.00;101783.34;2606958;22;20567;-66
2023/10/30 00:16:18;;;;;;;2.90;1.33;;;;;;;12.75;100.00;101779.41;2607502;22;20499;-65
2023/10/30 00:17:19;;;;;;;1.37;1.10;;;;;;;12.71;100.00;101768.28;2606989;22;20281;-66
2023/10/30 00:18:19;;;;;;;1.43;1.00;;;;;;;12.76;100.00;101784.50;2606715;22;20161;-66
2023/10/30 00:19:19;;;;;;;1.80;0.93;;;;;;;12.74;100.00;101777.78;2594040;22;20157;-66
2023/10/30 00:20:20;;;;;;;3.80;1.33;;;;;;;12.79;100.00;101782.88;2593181;22;20186;-66
2023/10/30 00:21:20;;;;;;;2.57;1.30;;;;;;;12.52;100.00;101738.41;2607567;22;20154;-66
2023/10/30 00:22:21;;;;;;;3.87;1.00;;;;;;;12.79;100.00;101780.91;2593957;22;20162;-66
2023/10/30 00:23:21;;;;;;;2.00;1.13;;;;;;;12.73;100.00;101798.47;2593617;22;20147;-66
2023/10/30 00:24:23;;;;;;;1.23;1.00;;;;;;;12.69;100.00;101784.63;2606709;22;20184;-66
2023/10/30 00:25:24;;;;;;;4.70;1.33;;;;;;;12.65;100.00;101789.44;2593414;22;20151;-66
2023/10/30 00:26:26;;;;;;;3.60;1.37;;;;;;;12.49;100.00;101769.81;2593808;22;20384;-66
2023/10/30 00:27:26;;;;;;;2.57;1.37;;;;;;;12.62;100.00;101786.72;2607779;22;20153;-66
2023/10/30 00:28:36;;;;;;;5.40;1.60;;;;;;;12.61;100.00;101787.94;2606861;22;20372;-65
2023/10/30 00:29:40;;;;;;;1.90;1.20;;;;;;;12.62;100.00;101790.28;2607586;22;20190;-66
2023/10/30 00:30:40;;;;;;;2.03;1.30;;;;;;;12.61;100.00;101796.28;2606602;22;20382;-66
2023/10/30 00:31:41;;;;;;;3.47;1.23;;;;;;;12.61;100.00;101796.28;2607195;22;20377;-66
2023/10/30 00:32:41;;;;;;;1.63;1.10;;;;;;;12.59;100.00;101805.03;2607506;22;20233;-66
2023/10/30 00:33:41;;;;;;;2.07;1.00;;;;;;;12.52;100.00;101796.78;2607002;22;20150;-66
2023/10/30 00:34:42;;;;;;;2.53;1.00;;;;;;;12.61;100.00;101801.84;2607226;22;20592;-66
2023/10/30 00:35:43;;;;;;;2.40;0.90;;;;;;;12.40;100.00;101777.09;2607004;22;20260;-66
2023/10/30 00:36:43;;;;;;;4.27;1.47;;;;;;;12.53;100.00;101794.78;2607466;22;20149;-66
2023/10/30 00:37:44;;;;;;;1.13;0.87;;;;;;;12.40;100.00;101793.78;2607265;22;20376;-66
2023/10/30 00:38:45;;;;;;;2.73;1.17;;;;;;;12.46;100.00;101790.09;2607244;22;20630;-66
2023/10/30 00:39:45;;;;;;;2.00;1.10;;;;;;;12.56;100.00;101800.28;2607614;22;20477;-66
2023/10/30 00:40:46;;;;;;;4.63;1.60;;;;;;;12.58;100.00;101799.88;2606983;22;20210;-66
2023/10/30 00:41:46;;;;;;;2.57;1.40;;;;;;;12.56;100.00;101796.75;2607338;22;20207;-66
2023/10/30 00:42:46;;;;;;;1.50;1.00;;;;;;;12.56;100.00;101797.50;2607562;22;20146;-66
2023/10/30 00:43:47;;;;;;;2.30;1.00;;;;;;;12.59;100.00;101804.22;2607483;22;20142;-66
2023/10/30 00:44:47;;;;;;;1.43;1.07;;;;;;;12.51;100.00;101786.84;2592981;22;20167;-66
2023/10/30 00:45:48;;;;;;;1.70;0.90;;;;;;;12.54;100.00;101808.28;2592994;22;20212;-65
2023/10/30 00:46:48;;;;;;;1.50;1.07;;;;;;;12.14;100.00;101750.81;2607396;22;20234;-66
2023/10/30 00:47:48;;;;;;;2.60;0.90;;;;;;;12.50;100.00;101793.63;2606956;22;20143;-66
2023/10/30 00:48:49;;;;;;;3.73;1.07;;;;;;;12.49;100.00;101792.03;2608239;22;20549;-66
2023/10/30 00:49:49;;;;;;;4.23;1.47;;;;;;;12.24;100.00;101757.44;2594808;22;20571;-66
2023/10/30 00:50:50;;;;;;;3.57;1.40;;;;;;;12.47;100.00;101797.25;2594720;22;20608;-66
2023/10/30 00:51:50;;;;;;;1.30;0.90;;;;;;;12.48;100.00;101786.91;2607678;22;20177;-66
2023/10/30 00:52:50;;;;;;;1.83;1.03;;;;;;;12.46;100.00;101787.31;2608189;22;20143;-66
2023/10/30 00:53:51;;;;;;;2.53;1.20;;;;;;;12.45;100.00;101785.75;2608395;22;20147;-66
2023/10/30 00:54:53;;;;;;;3.53;1.27;;;;;;;12.45;100.00;101784.97;2607150;22;20258;-66
2023/10/30 00:55:54;;;;;;;1.93;0.80;;;;;;;12.34;100.00;101765.63;2607820;22;20170;-66
2023/10/30 00:56:54;;;;;;;2.53;1.33;;;;;;;12.01;100.00;101715.66;2608163;22;20369;-66
2023/10/30 00:57:55;;;;;;;2.80;1.00;;;;;;;12.46;100.00;101784.53;2607857;22;20180;-66
2023/10/30 00:58:55;;;;;;;5.77;1.33;;;;;;;12.47;100.00;101788.09;2608149;22;20169;-66
2023/10/30 00:59:55;;;;;;;3.53;1.20;;;;;;;12.35;100.00;101767.22;2607565;22;20225;-66
2023/10/30 01:00:56;;;;;;;3.13;1.37;;;;;;;12.47;100.00;101786.13;2607498;22;20209;-66
2023/10/30 01:01:56;;;;;;;4.27;1.27;;;;;;;11.96;100.00;101711.34;2607765;22;20224;-66
2023/10/30 01:02:57;;;;;;;5.43;1.40;;;;;;;12.17;100.00;101735.28;2608109;22;20156;-66
2023/10/30 01:03:57;;;;;;;2.93;1.10;;;;;;;12.47;100.00;101782.56;2608287;22;20155;-66
2023/10/30 01:04:57;;;;;;;2.27;1.27;;;;;;;12.47;100.00;101788.09;2607346;22;20225;-66
2023/10/30 01:05:59;;;;;;;2.10;0.90;;;;;;;12.05;100.00;101727.50;2607516;22;20169;-66
2023/10/30 01:07:01;;;;;;;1.63;1.00;;;;;;;12.41;100.00;101779.44;2608095;22;20173;-65
2023/10/30 01:08:08;;;;;;;4.83;1.30;;;;;;;12.22;100.00;101746.75;2594021;22;20416;-66
2023/10/30 01:09:08;;;;;;;2.27;1.20;;;;;;;12.05;100.00;101725.50;2583029;22;20389;-66
2023/10/30 01:10:09;;;;;;;3.07;1.40;;;;;;;12.40;100.00;101777.09;2594839;22;20383;-66
2023/10/30 01:11:09;;;;;;;2.37;1.27;;;;;;;12.38;100.00;101777.50;2608564;22;20165;-66
2023/10/30 01:12:11;;;;;;;2.17;0.80;;;;;;;11.94;100.00;101724.06;2607892;22;20187;-66
2023/10/30 01:13:11;;;;;;;1.83;1.00;;;;;;;12.07;100.00;101734.22;2607999;22;20146;-66
2023/10/30 01:14:12;;;;;;;4.27;1.20;;;;;;;12.35;100.00;101780.34;2607868;22;20388;-66
2023/10/30 01:15:13;;;;;;;2.33;1.13;;;;;;;11.71;100.00;101685.84;2607330;22;20177;-66
2023/10/30 01:16:13;;;;;;;2.77;1.10;;;;;;;11.89;100.00;101716.97;2607475;22;20207;-66
2023/10/30 01:17:14;;;;;;;1.37;0.90;;;;;;;12.29;100.00;101777.22;2608416;22;20373;-66
2023/10/30 01:18:15;;;;;;;1.57;0.80;;;;;;;12.26;100.00;101774.50;2607421;22;20161;-66
2023/10/30 01:19:16;;;;;;;1.83;1.00;;;;;;;12.22;100.00;101773.75;2608294;22;20165;-66
2023/10/30 01:20:17;;;;;;;1.60;1.10;;;;;;;12.21;100.00;101766.59;2608232;22;20384;-66
2023/10/30 01:21:20;;;;;;;3.00;0.90;;;;;;;12.24;100.00;101772.13;2608215;22;20543;-66
2023/10/30 01:22:20;;;;;;;4.00;0.80;;;;;;;12.19;100.00;101769.03;2608159;22;20206;-66
2023/10/30 01:23:21;;;;;;;4.97;1.10;;;;;;;12.19;100.00;101771.81;2607553;22;20434;-66
2023/10/30 01:24:21;;;;;;;1.40;0.80;;;;;;;12.17;100.00;101768.63;2607813;22;20552;-66
2023/10/30 01:25:22;;;;;;;1.43;0.87;;;;;;;12.11;100.00;101770.31;2607702;22;20220;-66
2023/10/30 01:26:23;;;;;;;0.80;0.60;;;;;;;11.73;100.00;101725.09;2607157;22;20160;-66
2023/10/30 01:27:23;;;;;;;1.00;0.80;;;;;;;12.03;100.00;101766.81;2608319;22;20207;-66
2023/10/30 01:28:23;;;;;;;1.20;0.90;;;;;;;12.00;100.00;101761.31;2607363;22;20237;-66
2023/10/30 01:29:24;;;;;;;3.07;1.20;;;;;;;11.99;100.00;101763.28;2607837;22;20157;-66
2023/10/30 01:30:25;;;;;;;2.50;1.00;;;;;;;11.83;100.00;101737.31;2608063;22;20153;-66
2023/10/30 01:31:27;;;;;;;0.83;0.60;;;;;;;11.92;100.00;101763.38;2608249;22;20153;-66
2023/10/30 01:32:28;;;;;;;0.90;0.70;;;;;;;11.88;100.00;101770.19;2608079;22;20153;-66
2023/10/30 01:33:28;;;;;;;2.73;0.90;;;;;;;11.54;100.00;101731.22;2607471;22;20434;-66
2023/10/30 01:34:28;;;;;;;1.37;0.90;;;;;;;11.32;100.00;101696.56;2608151;22;20600;-66
2023/10/30 01:35:29;;;;;;;1.27;0.93;;;;;;;11.86;100.00;101770.59;2607495;22;20231;-65
2023/10/30 01:36:30;;;;;;;1.10;1.00;;;;;;;11.85;100.00;101782.09;2606867;22;20226;-66
2023/10/30 01:37:30;;;;;;;1.17;0.80;;;;;;;11.80;100.00;101766.69;2608342;22;20150;-66
2023/10/30 01:38:30;;;;;;;4.40;0.90;;;;;;;11.78;100.00;101771.84;2607459;22;20153;-66
2023/10/30 01:39:31;;;;;;;3.43;1.13;;;;;;;11.70;100.00;101759.25;2608079;22;20234;-66
2023/10/30 01:40:31;;;;;;;2.47;1.20;;;;;;;11.76;100.00;101767.91;2608028;22;20150;-66
2023/10/30 01:41:32;;;;;;;3.83;1.37;;;;;;;11.62;100.00;101760.53;2608373;22;20153;-66
2023/10/30 01:42:32;;;;;;;1.83;1.27;;;;;;;11.69;100.00;101776.34;2608099;22;20157;-66
2023/10/30 01:43:33;;;;;;;1.43;0.90;;;;;;;11.69;100.00;101776.34;2606981;22;20239;-66
2023/10/30 01:44:34;;;;;;;1.20;0.87;;;;;;;11.69;100.00;101779.88;2607645;22;20184;-66
2023/10/30 01:45:34;;;;;;;1.83;1.20;;;;;;;11.65;100.00;101770.81;2607577;22;20700;-66
2023/10/30 01:46:35;;;;;;;1.80;1.00;;;;;;;11.62;100.00;101779.16;2607049;22;20442;-66
2023/10/30 01:47:36;;;;;;;2.13;1.13;;;;;;;11.60;100.00;101774.03;2608156;22;20604;-66
2023/10/30 01:48:36;;;;;;;1.97;1.13;;;;;;;11.53;100.00;101762.19;2607342;22;20209;-66
2023/10/30 01:49:37;;;;;;;2.03;1.00;;;;;;;11.62;100.00;101771.63;2608181;22;20386;-66
2023/10/30 01:50:37;;;;;;;2.30;1.00;;;;;;;11.61;100.00;101772.03;2608299;22;20545;-66
2023/10/30 01:51:39;;;;;;;1.50;1.10;;;;;;;11.58;100.00;101778.41;2608138;22;20223;-66
2023/10/30 01:52:40;;;;;;;2.20;1.20;;;;;;;11.23;100.00;101721.22;2608160;22;20611;-66
2023/10/30 01:53:40;;;;;;;2.67;1.10;;;;;;;11.47;100.00;101774.94;2608019;22;20407;-66
2023/10/30 01:54:43;;;;;;;3.40;1.33;;;;;;;11.52;100.00;101780.03;2593644;22;20399;-66
2023/10/30 01:55:44;;;;;;;1.87;1.00;;;;;;;11.49;100.00;101780.84;2594318;22;20269;-65
2023/10/30 01:56:45;;;;;;;1.97;1.00;;;;;;;11.47;100.00;101783.28;2607304;22;20384;-66
2023/10/30 01:57:46;;;;;;;2.87;1.40;;;;;;;10.98;100.00;101714.31;2606551;22;20474;-66
2023/10/30 01:58:46;;;;;;;4.53;1.30;;;;;;;11.18;100.00;101745.84;2607859;22;20259;-65
2023/10/30 01:59:50;;;;;;;3.30;1.30;;;;;;;11.45;100.00;101786.44;2607669;22;20229;-66
2023/10/30 02:00:51;;;;;;;3.83;1.27;;;;;;;11.46;100.00;101784.44;2607926;22;20142;-66
2023/10/30 02:01:51;;;;;;;2.90;1.10;;;;;;;11.46;100.00;101785.25;2608050;22;20373;-66
2023/10/30 02:02:52;;;;;;;2.93;1.40;;;;;;;11.21;100.00;101751.38;2608000;22;20419;-66
2023/10/30 02:03:55;;;;;;;2.20;1.30;;;;;;;10.85;100.00;101694.59;2608029;22;20623;-66
2023/10/30 02:04:55;;;;;;;1.73;0.90;;;;;;;11.43;100.00;101786.06;2607188;22;20279;-66
2023/10/30 02:05:56;;;;;;;4.53;1.17;;;;;;;11.41;100.00;101788.47;2607593;22;20369;-67
2023/10/30 02:06:57;;;;;;;3.23;1.20;;;;;;;11.40;100.00;101784.09;2607569;22;20145;-66
2023/10/30 02:07:58;;;;;;;5.83;1.10;;;;;;;11.41;100.00;101779.34;2606804;22;20150;-66
2023/10/30 02:08:58;;;;;;;2.13;1.30;;;;;;;11.39;100.00;101782.53;2607817;22;20371;-66
2023/10/30 02:09:59;;;;;;;1.70;1.03;;;;;;;11.40;100.00;101772.22;2608175;22;20612;-66
2023/10/30 02:10:59;;;;;;;3.87;1.00;;;;;;;11.40;100.00;101777.75;2594215;22;20169;-66
2023/10/30 02:12:00;;;;;;;3.03;1.07;;;;;;;11.43;100.00;101783.28;2593829;22;20212;-66
2023/10/30 02:13:06;;;;;;;1.17;0.80;;;;;;;11.24;100.00;101760.84;2607915;22;20182;-66
2023/10/30 02:14:07;;;;;;;1.57;1.07;;;;;;;10.88;100.00;101696.56;2608121;22;20154;-66
2023/10/30 02:15:08;;;;;;;1.93;0.80;;;;;;;11.37;100.00;101779.38;2607271;22;20437;-66
2023/10/30 02:16:09;;;;;;;1.40;0.90;;;;;;;10.97;100.00;101726.59;2607146;22;20150;-66
2023/10/30 02:17:09;;;;;;;1.40;0.83;;;;;;;11.27;100.00;101777.47;2608118;22;20381;-66
2023/10/30 02:18:10;;;;;;;2.00;1.00;;;;;;;11.32;100.00;101790.13;2606286;22;20149;-66
2023/10/30 02:19:21;;;;;;;4.10;1.10;;;;;;;11.32;100.00;101798.47;2607842;22;20147;-66
2023/10/30 02:20:22;;;;;;;1.80;1.00;;;;;;;11.33;100.00;101792.47;2608072;22;20369;-66
2023/10/30 02:21:22;;;;;;;2.70;1.20;;;;;;;11.34;100.00;101801.59;2594443;22;20957;-66
2023/10/30 02:22:23;;;;;;;3.07;1.13;;;;;;;11.33;100.00;101794.47;2594356;22;20151;-67
2023/10/30 02:23:23;;;;;;;1.33;0.90;;;;;;;11.31;100.00;101794.09;2608433;22;20154;-66
2023/10/30 02:24:24;;;;;;;1.87;1.10;;;;;;;11.04;100.00;101748.72;2607526;22;20183;-67
2023/10/30 02:25:25;;;;;;;2.90;1.43;;;;;;;10.88;100.00;101726.28;2607166;22;20150;-66
2023/10/30 02:26:25;;;;;;;7.37;1.70;;;;;;;11.27;100.00;101791.34;2606811;22;20163;-67
2023/10/30 02:27:26;;;;;;;7.13;1.13;;;;;;;11.26;100.00;101797.28;2608079;22;20154;-66
2023/10/30 02:28:26;;;;;;;6.53;1.67;;;;;;;11.25;100.00;101795.72;2605784;22;20182;-66
2023/10/30 02:29:26;;;;;;;1.47;1.07;;;;;;;11.24;100.00;101797.72;2607934;22;20173;-66
2023/10/30 02:30:27;;;;;;;4.50;1.43;;;;;;;11.24;100.00;101802.47;2607898;22;20240;-66
2023/10/30 02:31:27;;;;;;;2.50;1.20;;;;;;;11.24;100.00;101797.72;2608021;22;20200;-66
2023/10/30 02:32:28;;;;;;;7.40;1.93;;;;;;;11.26;100.00;101805.63;2607843;22;20157;-67
2023/10/30 02:33:28;;;;;;;2.30;1.00;;;;;;;11.26;100.00;101803.66;2607999;22;20146;-67
2023/10/30 02:34:28;;;;;;;2.23;1.20;;;;;;;11.24;100.00;101811.59;2607764;22;20151;-66
2023/10/30 02:35:29;;;;;;;2.93;1.43;;;;;;;11.21;100.00;101801.31;2607362;22;20257;-67
2023/10/30 02:36:29;;;;;;;5.70;1.73;;;;;;;10.80;100.00;101739.41;2606979;22;20146;-67
2023/10/30 02:37:30;;;;;;;2.27;1.43;;;;;;;11.22;100.00;101802.09;2608246;22;20253;-67
2023/10/30 02:38:30;;;;;;;6.27;1.70;;;;;;;11.23;100.00;101798.13;2606331;22;20242;-67
2023/10/30 02:39:33;;;;;;;3.37;1.30;;;;;;;10.96;100.00;101766.63;2607914;22;20567;-66
2023/10/30 02:40:33;;;;;;;3.73;1.30;;;;;;;11.22;100.00;101800.09;2607430;22;20153;-67
2023/10/30 02:41:34;;;;;;;4.77;1.37;;;;;;;10.65;100.00;101701.88;2607969;22;20872;-66
2023/10/30 02:42:35;;;;;;;2.87;1.50;;;;;;;10.82;100.00;101739.00;2594237;22;20633;-66
2023/10/30 02:43:35;;;;;;;1.67;1.20;;;;;;;11.26;100.00;101788.97;2594607;22;20162;-66
2023/10/30 02:44:36;;;;;;;2.73;1.30;;;;;;;11.26;100.00;101792.53;2607819;22;20369;-67
2023/10/30 02:45:37;;;;;;;1.67;0.90;;;;;;;11.25;100.00;101793.75;2607290;22;20710;-66
2023/10/30 02:46:38;;;;;;;1.53;1.10;;;;;;;11.26;100.00;101784.22;2607216;22;20800;-66
2023/10/30 02:47:38;;;;;;;2.20;1.13;;;;;;;11.26;100.00;101786.19;2607751;22;20763;-66
2023/10/30 02:48:39;;;;;;;1.40;1.03;;;;;;;10.75;100.00;101706.56;2606559;22;20150;-67
2023/10/30 02:49:40;;;;;;;2.03;1.00;;;;;;;11.08;100.00;101753.06;2607747;22;20226;-66
2023/10/30 02:50:42;;;;;;;4.40;1.27;;;;;;;11.25;100.00;101782.66;2607881;22;20199;-67
2023/10/30 02:51:42;;;;;;;2.30;1.13;;;;;;;11.26;100.00;101778.69;2607957;22;20199;-67
2023/10/30 02:52:43;;;;;;;6.43;1.20;;;;;;;11.17;100.00;101756.16;2607849;22;20401;-67
2023/10/30 02:53:44;;;;;;;2.63;1.10;;;;;;;11.10;100.00;101759.00;2607987;22;20145;-67
2023/10/30 02:54:44;;;;;;;2.73;1.23;;;;;;;11.18;100.00;101777.16;2593091;22;20490;-67
2023/10/30 02:55:45;;;;;;;1.40;1.00;;;;;;;11.27;100.00;101785.78;2593711;22;20221;-67
2023/10/30 02:56:45;;;;;;;1.53;0.97;;;;;;;11.26;100.00;101775.91;2607872;22;20146;-67
2023/10/30 02:57:46;;;;;;;4.83;1.63;;;;;;;11.27;100.00;101785.78;2592788;22;20154;-66
2023/10/30 02:58:46;;;;;;;2.30;1.10;;;;;;;11.29;100.00;101779.84;2581341;23;20159;-66
2023/10/30 02:59:47;;;;;;;2.60;1.00;;;;;;;11.31;100.00;101791.31;2593249;22;20151;-66
2023/10/30 03:00:48;;;;;;;2.63;0.93;;;;;;;11.31;100.00;101791.31;2607585;22;20149;-66
2023/10/30 03:01:48;;;;;;;2.37;1.20;;;;;;;10.98;100.00;101748.41;2608057;22;20610;-67
2023/10/30 03:02:49;;;;;;;5.07;1.47;;;;;;;11.21;100.00;101795.75;2607684;22;20709;-67
2023/10/30 03:03:49;;;;;;;3.53;1.50;;;;;;;11.23;100.00;101795.34;2607836;22;20229;-66
2023/10/30 03:04:49;;;;;;;2.90;1.67;;;;;;;11.24;100.00;101788.59;2607746;22;20522;-66
2023/10/30 03:05:50;;;;;;;6.07;1.53;;;;;;;10.96;100.00;101750.00;2593565;22;20498;-67
2023/10/30 03:06:50;;;;;;;6.47;1.40;;;;;;;10.75;100.00;101725.97;2594078;22;20150;-67
2023/10/30 03:07:51;;;;;;;3.07;0.97;;;;;;;11.13;100.00;101776.81;2606472;22;20251;-67
2023/10/30 03:08:51;;;;;;;5.70;1.30;;;;;;;11.26;100.00;101791.75;2606987;22;20154;-67
2023/10/30 03:09:51;;;;;;;6.87;1.57;;;;;;;10.92;100.00;101738.13;2606901;22;20147;-67
2023/10/30 03:10:52;;;;;;;2.47;1.23;;;;;;;11.25;100.00;101790.97;2607680;22;20146;-67
2023/10/30 03:11:52;;;;;;;9.33;1.60;;;;;;;11.24;100.00;101783.84;2607316;22;20577;-67
2023/10/30 03:12:52;;;;;;;2.10;1.33;;;;;;;11.26;100.00;101788.97;2607595;22;20146;-67
2023/10/30 03:13:53;;;;;;;4.43;1.23;;;;;;;11.28;100.00;101792.16;2607904;22;20200;-66
2023/10/30 03:14:53;;;;;;;3.80;1.43;;;;;;;11.29;100.00;101785.38;2607592;22;20189;-67
2023/10/30 03:15:54;;;;;;;1.97;1.20;;;;;;;10.77;100.00;101708.94;2607120;22;20150;-67
2023/10/30 03:16:54;;;;;;;3.17;1.60;;;;;;;11.30;100.00;101798.88;2607772;22;20148;-67
2023/10/30 03:17:55;;;;;;;2.93;1.40;;;;;;;11.26;100.00;101794.53;2607129;22;20145;-67
2023/10/30 03:18:55;;;;;;;3.87;1.43;;;;;;;11.26;100.00;101791.75;2607236;22;20207;-66
2023/10/30 03:19:55;;;;;;;2.97;1.20;;;;;;;11.29;100.00;101790.94;2607100;22;20148;-66
2023/10/30 03:20:56;;;;;;;2.53;1.30;;;;;;;11.32;100.00;101796.47;2606433;22;20153;-66
2023/10/30 03:21:56;;;;;;;2.07;1.27;;;;;;;11.31;100.00;101789.34;2607792;22;20146;-66
2023/10/30 03:22:57;;;;;;;4.27;1.50;;;;;;;11.21;100.00;101781.88;2607182;22;20145;-66
2023/10/30 03:23:57;;;;;;;3.33;1.47;;;;;;;11.36;100.00;101793.66;2607105;22;20488;-66
2023/10/30 03:24:58;;;;;;;11.27;1.50;;;;;;;11.06;100.00;101751.91;2607353;22;20647;-67
2023/10/30 03:25:59;;;;;;;8.20;1.30;;;;;;;11.37;100.00;101800.81;2607161;22;20592;-67
2023/10/30 03:27:00;;;;;;;3.57;1.23;;;;;;;11.03;100.00;101744.38;2607531;22;20148;-66
2023/10/30 03:28:02;;;;;;;6.07;1.67;;;;;;;11.35;100.00;101792.06;2607193;22;20391;-66
2023/10/30 03:29:02;;;;;;;2.83;1.17;;;;;;;11.36;100.00;101791.66;2606716;22;20377;-66
2023/10/30 03:30:03;;;;;;;5.57;1.43;;;;;;;11.38;100.00;101791.28;2607752;22;20385;-66
2023/10/30 03:31:07;;;;;;;3.63;2.20;;;;;;;11.37;100.00;101790.47;2606674;22;20155;-67
2023/10/30 03:32:08;;;;;;;4.50;1.40;;;;;;;11.37;100.00;101792.47;2607682;22;20877;-66
2023/10/30 03:33:08;;;;;;;2.77;1.20;;;;;;;11.38;100.00;101794.03;2607742;22;20781;-66
2023/10/30 03:34:09;;;;;;;4.93;1.87;;;;;;;11.37;100.00;101798.78;2607636;22;20233;-66
2023/10/30 03:35:09;;;;;;;7.00;1.67;;;;;;;11.34;100.00;101799.63;2606875;22;20153;-66
2023/10/30 03:36:10;;;;;;;4.50;1.50;;;;;;;11.23;100.00;101796.13;2606904;22;20596;-66
2023/10/30 03:37:10;;;;;;;2.13;1.33;;;;;;;10.88;100.00;101734.59;2607705;22;20169;-66
2023/10/30 03:38:10;;;;;;;3.87;1.40;;;;;;;11.34;100.00;101799.63;2592696;22;20643;-67
2023/10/30 03:39:11;;;;;;;2.30;1.30;;;;;;;11.10;100.00;101758.19;2593401;22;20603;-66
2023/10/30 03:40:12;;;;;;;5.33;1.60;;;;;;;11.34;100.00;101796.06;2607767;22;20486;-66
2023/10/30 03:41:12;;;;;;;9.70;1.87;;;;;;;11.36;100.00;101793.66;2606686;22;20154;-66
2023/10/30 03:42:12;;;;;;;5.80;1.50;;;;;;;11.04;100.00;101748.72;2607688;22;20154;-67
2023/10/30 03:43:15;;;;;;;4.80;1.50;;;;;;;11.31;100.00;101794.88;2607673;22;20620;-66
2023/10/30 03:44:17;;;;;;;4.90;1.57;;;;;;;11.31;100.00;101803.22;2607604;22;20161;-67
2023/10/30 03:45:18;;;;;;;2.80;1.10;;;;;;;11.32;100.00;101796.47;2607153;22;20382;-66
2023/10/30 03:46:18;;;;;;;4.37;1.40;;;;;;;11.33;100.00;101794.47;2607356;22;20407;-66
2023/10/30 03:47:18;;;;;;;4.03;1.30;;;;;;;11.14;100.00;101773.63;2607709;22;20154;-67
2023/10/30 03:48:19;;;;;;;3.43;1.37;;;;;;;11.30;100.00;101798.88;2606862;22;20256;-66
2023/10/30 03:49:20;;;;;;;6.80;1.43;;;;;;;11.29;100.00;101799.28;2607468;22;20203;-66
2023/10/30 03:50:21;;;;;;;3.40;1.20;;;;;;;11.29;100.00;101804.81;2607094;22;20161;-66
2023/10/30 03:51:21;;;;;;;2.00;1.17;;;;;;;11.26;100.00;101803.66;2606878;22;20391;-67
2023/10/30 03:52:22;;;;;;;2.10;1.37;;;;;;;11.20;100.00;101794.19;2606906;22;20155;-66
2023/10/30 03:53:22;;;;;;;3.40;1.00;;;;;;;11.23;100.00;101801.69;2607856;22;20157;-66
2023/10/30 03:54:23;;;;;;;4.00;1.20;;;;;;;11.20;100.00;101801.72;2607493;22;20158;-67
2023/10/30 03:55:23;;;;;;;4.13;1.40;;;;;;;11.17;100.00;101799.78;2607038;22;20177;-66
2023/10/30 03:56:24;;;;;;;2.00;1.50;;;;;;;11.11;100.00;101796.63;2607666;22;20146;-67
2023/10/30 03:57:25;;;;;;;2.90;1.10;;;;;;;11.09;100.00;101796.25;2607680;22;20149;-67
2023/10/30 03:58:26;;;;;;;2.10;1.00;;;;;;;11.09;100.00;101795.47;2606894;22;20499;-66
2023/10/30 03:59:27;;;;;;;2.50;1.10;;;;;;;11.04;100.00;101795.88;2607504;22;20377;-66
2023/10/30 04:00:28;;;;;;;3.90;1.13;;;;;;;11.02;100.00;101792.75;2606753;22;20668;-66
2023/10/30 04:01:28;;;;;;;2.70;1.53;;;;;;;11.02;100.00;101799.06;2607158;22;20154;-67
2023/10/30 04:02:29;;;;;;;1.60;1.07;;;;;;;11.00;100.00;101797.91;2606793;22;20398;-66
2023/10/30 04:03:29;;;;;;;1.97;1.40;;;;;;;10.97;100.00;101799.50;2607812;22;20152;-66
2023/10/30 04:04:30;;;;;;;3.03;1.00;;;;;;;10.62;100.00;101741.53;2607352;22;20222;-66
2023/10/30 04:05:30;;;;;;;4.97;1.97;;;;;;;10.96;100.00;101797.94;2607249;22;20146;-66
2023/10/30 04:06:31;;;;;;;2.47;1.20;;;;;;;10.96;100.00;101800.69;2592894;22;20151;-67
2023/10/30 04:07:31;;;;;;;4.27;1.17;;;;;;;10.94;100.00;101788.44;2594250;22;20244;-66
2023/10/30 04:08:31;;;;;;;6.97;1.20;;;;;;;10.86;100.00;101798.78;2605936;22;20688;-66
2023/10/30 04:09:32;;;;;;;2.50;1.40;;;;;;;10.73;100.00;101777.47;2606918;22;20280;-67
2023/10/30 04:10:33;;;;;;;2.80;1.23;;;;;;;10.77;100.00;101778.25;2593168;22;20169;-66
2023/10/30 04:11:34;;;;;;;4.57;1.97;;;;;;;10.76;100.00;101783.00;2594031;22;20902;-66
2023/10/30 04:12:35;;;;;;;2.80;1.50;;;;;;;10.87;100.00;101799.59;2606577;22;20165;-66
2023/10/30 04:13:36;;;;;;;1.90;1.20;;;;;;;10.87;100.00;101791.25;2593957;22;20377;-66
2023/10/30 04:14:37;;;;;;;4.80;1.33;;;;;;;10.84;100.00;101795.63;2581155;22;20160;-66
2023/10/30 04:15:38;;;;;;;6.27;1.37;;;;;;;10.78;100.00;101786.19;2593714;22;20183;-67
2023/10/30 04:16:38;;;;;;;3.67;1.80;;;;;;;10.84;100.00;101798.41;2607342;22;20400;-66
2023/10/30 04:17:39;;;;;;;4.43;1.60;;;;;;;10.83;100.00;101794.06;2593954;22;20147;-66
2023/10/30 04:18:40;;;;;;;1.70;1.20;;;;;;;10.37;100.00;101740.06;2593791;22;20148;-66
2023/10/30 04:19:40;;;;;;;2.00;1.00;;;;;;;10.74;100.00;101792.91;2594176;22;20389;-66
2023/10/30 04:20:41;;;;;;;3.03;1.10;;;;;;;10.49;100.00;101756.22;2593390;22;20157;-66
2023/10/30 04:21:41;;;;;;;3.13;1.27;;;;;;;10.74;100.00;101793.72;2607272;22;20147;-66
2023/10/30 04:22:42;;;;;;;2.50;1.37;;;;;;;10.76;100.00;101798.88;2606681;22;20650;-66
2023/10/30 04:23:43;;;;;;;2.10;1.27;;;;;;;10.18;100.00;101719.19;2608400;22;20172;-66
2023/10/30 04:24:43;;;;;;;2.10;1.23;;;;;;;10.74;100.00;101802.03;2608085;22;20197;-67
2023/10/30 04:25:44;;;;;;;2.53;1.40;;;;;;;10.71;100.00;101797.28;2607790;22;20403;-66
2023/10/30 04:26:44;;;;;;;2.67;1.20;;;;;;;10.77;100.00;101800.44;2608285;22;20146;-66
2023/10/30 04:27:44;;;;;;;5.83;1.57;;;;;;;10.71;100.00;101811.16;2608035;22;20166;-66
2023/10/30 04:28:45;;;;;;;2.07;1.40;;;;;;;10.54;100.00;101795.41;2594698;22;20164;-66
2023/10/30 04:29:46;;;;;;;2.93;1.13;;;;;;;10.68;100.00;101817.53;2594904;22;20499;-66
2023/10/30 04:30:46;;;;;;;6.27;1.67;;;;;;;10.63;100.00;101814.38;2608340;22;20229;-66
2023/10/30 04:31:47;;;;;;;1.30;1.00;;;;;;;10.61;100.00;101814.78;2607797;22;20229;-66
2023/10/30 04:32:47;;;;;;;6.10;1.50;;;;;;;10.61;100.00;101808.44;2608212;22;20150;-66
2023/10/30 04:33:47;;;;;;;4.00;1.43;;;;;;;10.58;100.00;101810.03;2607565;22;20177;-66
2023/10/30 04:34:48;;;;;;;1.93;1.20;;;;;;;10.59;100.00;101813.59;2607684;22;20153;-66
2023/10/30 04:35:48;;;;;;;2.10;1.20;;;;;;;10.57;100.00;101816.00;2607334;22;20641;-66
2023/10/30 04:36:49;;;;;;;2.33;1.40;;;;;;;10.60;100.00;101809.66;2608308;22;20493;-66
2023/10/30 04:37:50;;;;;;;3.97;1.60;;;;;;;10.61;100.00;101811.22;2607843;22;20225;-66
2023/10/30 04:38:50;;;;;;;3.30;1.77;;;;;;;10.64;100.00;101804.84;2608171;22;20201;-66